Portada
METAR-TAF:

METAR-TAF

Aeroports :

Cervia, Itàlia

latitud: 44-13N, longitud: 012-18E, altitud: 6 m

Observació

L'informe es va fer fa 1 hora i 33 minuts, a les 21:55 UTC
Vent 5 kt del Sud-Oest
Temperatura 26°C
Humitat 65%
Pressió 1016 hPa
Visibilitat 10 km o més
sense núvols per sota de 1500 mi sense presència de cumulonimbus.

METAR: LIPC 182155Z 23005KT CAVOK 26/19 Q1016 RMK SKC VIS MIN 9999 WIND THR11 22005KT WIND THR29 24005KT BLU

Hora: 01:28 (23:28 UTC)

Pronòstic

L'informe es va fer fa 3 hores i 28 minuts, a les 20:00 UTC
Pronòstic vàlid del 18 a les 21 UTC al 19 a les 06 UTC
Vent 3 kt del Est/Sud-Est
Visibilitat 10 km o més
sense núvols per sota de 1500 mi sense presència de cumulonimbus.

TAF: LIPC 182000Z 1821/1906 12003KT CAVOK

Observacions i pronòstics meteorològics de més de 4000 aeroports (METAR i TAF).

Les estacions disponibles són els punts grocs i vermells al mapa.

Posi el ratolí al punt desitjat per veure el nom de l'estació.

Feu clic per veure les observacions i els pronòstics meteorològics.

Per canviar el mapa: feu clic els botons verds amb una creu de color negre per apropar; al botó verd amb un guió per allunyar la imatge; o en les fletxes verdes per a mapes adjacents.


METAR-TAF: